Time;durP1;ratioP1;P1;durP2;ratioP2;P2;SDS_P1;SDS_P2;PMS_P1;PMS_P2;Temp;Humidity;BMP_temperature;BMP_pressure;BME280_temperature;BME280_humidity;BME280_pressure;Samples;Min_cycle;Max_cycle;Signal;HPM_P1;HPM_P2
2022/04/22 00:00:22;;;;;;;4.95;3.60;;;4.50;99.90;;;;;;5115155;28;20064;-74
2022/04/22 00:02:48;;;;;;;4.80;3.08;;;4.60;99.90;;;;;;5114733;27;20024;-74
2022/04/22 00:05:15;;;;;;;4.03;3.45;;;4.70;99.90;;;;;;5116132;28;20045;-74
2022/04/22 00:07:40;;;;;;;4.32;3.22;;;4.60;99.90;;;;;;5117247;28;20050;-74
2022/04/22 00:10:08;;;;;;;4.32;3.05;;;4.50;99.90;;;;;;5116867;28;20051;-74
2022/04/22 00:12:34;;;;;;;4.47;3.58;;;4.50;99.90;;;;;;5114441;28;20097;-74
2022/04/22 00:14:59;;;;;;;3.85;3.35;;;4.50;99.90;;;;;;5115550;28;20154;-74
2022/04/22 00:17:25;;;;;;;3.58;3.00;;;4.40;99.90;;;;;;5114343;28;20464;-74
2022/04/22 00:19:51;;;;;;;6.95;3.35;;;4.40;99.90;;;;;;5114041;28;20420;-74
2022/04/22 00:22:17;;;;;;;5.22;3.67;;;4.40;99.90;;;;;;5114488;28;20536;-74
2022/04/22 00:24:42;;;;;;;4.05;3.38;;;4.40;99.90;;;;;;5114659;28;20499;-74
2022/04/22 00:27:08;;;;;;;3.80;3.22;;;4.40;99.90;;;;;;5113464;28;20468;-74
2022/04/22 00:29:34;;;;;;;5.10;3.40;;;4.40;99.90;;;;;;5113085;28;20514;-74
2022/04/22 00:31:59;;;;;;;4.35;3.22;;;4.40;99.90;;;;;;5114548;28;20090;-74
2022/04/22 00:34:25;;;;;;;8.63;4.40;;;4.30;99.90;;;;;;5114348;28;20027;-74
2022/04/22 00:36:51;;;;;;;8.40;3.25;;;4.40;99.90;;;;;;5114249;28;20016;-74
2022/04/22 00:39:16;;;;;;;5.32;3.47;;;4.30;99.90;;;;;;5114069;28;20078;-74
2022/04/22 00:41:43;;;;;;;6.22;3.50;;;4.30;99.90;;;;;;5114919;28;20020;-74
2022/04/22 00:44:08;;;;;;;5.55;3.38;;;4.30;99.90;;;;;;5114975;28;20015;-74
2022/04/22 00:46:34;;;;;;;6.88;3.67;;;4.30;99.90;;;;;;5114207;28;20019;-74
2022/04/22 00:49:00;;;;;;;6.60;3.60;;;4.30;99.90;;;;;;5114878;28;20042;-74
2022/04/22 00:51:26;;;;;;;5.20;4.25;;;4.40;99.90;;;;;;5114342;28;20487;-74
2022/04/22 00:53:52;;;;;;;4.32;3.75;;;4.50;99.90;;;;;;5115027;28;20027;-74
2022/04/22 00:56:19;;;;;;;4.15;3.65;;;4.50;99.90;;;;;;5115810;28;20035;-74
2022/04/22 00:58:46;;;;;;;4.18;3.67;;;4.40;99.90;;;;;;5113748;28;20027;-74
2022/04/22 01:01:12;;;;;;;4.57;3.45;;;4.30;99.90;;;;;;5113850;27;20034;-74
2022/04/22 01:03:39;;;;;;;4.63;3.60;;;4.30;99.90;;;;;;5111453;28;20038;-74
2022/04/22 01:11:39;;;;;;;6.20;3.60;;;4.20;99.90;;;;;;5113054;28;20030;-74
2022/04/22 01:14:06;;;;;;;3.95;3.17;;;4.10;99.90;;;;;;5112621;28;20181;-74
2022/04/22 01:16:35;;;;;;;4.95;3.95;;;4.10;99.90;;;;;;5113804;28;20030;-74
2022/04/22 01:19:01;;;;;;;5.32;2.80;;;4.00;99.90;;;;;;5113083;28;20031;-74
2022/04/22 01:21:26;;;;;;;3.95;2.90;;;3.90;99.90;;;;;;5111910;27;20027;-74
2022/04/22 01:23:52;;;;;;;5.07;3.40;;;3.80;99.90;;;;;;5113555;28;20034;-74
2022/04/22 01:26:18;;;;;;;6.10;3.55;;;4.00;99.90;;;;;;5112758;28;20015;-74
2022/04/22 01:28:44;;;;;;;4.10;3.35;;;4.20;99.90;;;;;;5112603;28;20535;-74
2022/04/22 01:31:10;;;;;;;5.35;3.80;;;4.20;99.90;;;;;;5112623;28;20077;-74
2022/04/22 01:33:35;;;;;;;4.05;3.33;;;4.20;99.90;;;;;;5112627;28;20027;-74
2022/04/22 01:36:01;;;;;;;5.57;3.72;;;4.00;99.90;;;;;;5113150;28;20090;-74
2022/04/22 01:38:27;;;;;;;4.15;3.67;;;3.80;99.90;;;;;;5112310;28;20030;-74
2022/04/22 01:40:54;;;;;;;4.47;3.67;;;3.80;99.90;;;;;;5112072;28;20057;-74
2022/04/22 01:43:20;;;;;;;4.57;3.65;;;3.70;99.90;;;;;;5111965;28;20016;-74
2022/04/22 01:45:46;;;;;;;6.40;3.55;;;3.80;99.90;;;;;;5112266;28;20034;-74
2022/04/22 01:48:12;;;;;;;5.10;3.15;;;3.80;99.90;;;;;;5112327;28;20028;-74
2022/04/22 01:50:37;;;;;;;5.05;3.63;;;4.00;99.90;;;;;;5112045;28;20031;-74
2022/04/22 01:53:06;;;;;;;4.95;3.47;;;3.90;99.90;;;;;;5112054;28;20020;-74
2022/04/22 01:55:33;;;;;;;3.83;3.28;;;3.80;99.90;;;;;;5111542;28;20035;-74
2022/04/22 01:57:59;;;;;;;6.47;4.10;;;3.70;99.90;;;;;;5112202;28;20399;-74
2022/04/22 02:00:24;;;;;;;7.22;4.50;;;3.70;99.90;;;;;;5111824;27;20032;-74
2022/04/22 02:02:50;;;;;;;6.47;4.55;;;3.80;99.90;;;;;;5112081;28;20020;-74
2022/04/22 02:05:15;;;;;;;8.00;4.03;;;3.70;99.90;;;;;;5112066;28;20464;-75
2022/04/22 02:07:41;;;;;;;7.25;4.00;;;3.70;99.90;;;;;;5111691;28;20465;-74
2022/04/22 02:10:08;;;;;;;8.50;4.18;;;3.70;99.90;;;;;;5111617;28;20438;-74
2022/04/22 02:12:34;;;;;;;7.45;3.83;;;3.70;99.90;;;;;;5109827;28;20024;-74
2022/04/22 02:14:59;;;;;;;8.60;4.07;;;3.70;99.90;;;;;;5113046;28;20039;-74
2022/04/22 02:17:26;;;;;;;6.15;4.03;;;3.70;99.90;;;;;;5112087;28;20027;-74
2022/04/22 02:19:52;;;;;;;4.32;3.85;;;3.70;99.90;;;;;;5112002;28;20027;-74
2022/04/22 02:22:17;;;;;;;8.02;4.35;;;3.90;99.90;;;;;;5111658;28;20103;-74
2022/04/22 02:24:43;;;;;;;5.05;3.67;;;3.90;99.90;;;;;;5111379;28;20032;-74
2022/04/22 02:29:53;;;;;;;4.90;3.67;;;3.90;99.90;;;;;;5112127;28;20039;-74
2022/04/22 02:32:18;;;;;;;6.43;4.20;;;3.70;99.90;;;;;;5113165;28;20020;-74
2022/04/22 02:34:44;;;;;;;7.10;4.30;;;3.80;99.90;;;;;;5112354;28;20271;-74
2022/04/22 02:37:10;;;;;;;6.70;4.15;;;3.90;99.90;;;;;;5111884;28;20008;-74
2022/04/22 02:39:36;;;;;;;7.60;4.50;;;4.00;99.90;;;;;;5111919;28;20456;-74
2022/04/22 02:47:30;;;;;;;9.18;3.90;;;4.20;99.90;;;;;;5112098;28;20041;-74
2022/04/22 02:49:56;;;;;;;5.78;4.18;;;4.20;99.90;;;;;;5111715;28;20035;-74
2022/04/22 02:52:22;;;;;;;7.13;4.80;;;4.20;99.90;;;;;;5111955;28;20038;-74
2022/04/22 02:54:47;;;;;;;6.75;3.97;;;4.10;99.90;;;;;;5112092;28;20031;-74
2022/04/22 02:57:16;;;;;;;7.18;3.97;;;4.10;99.90;;;;;;5112973;28;20012;-74
2022/04/22 02:59:44;;;;;;;5.25;3.88;;;4.00;99.90;;;;;;5118059;28;20027;-74
2022/04/22 03:02:10;;;;;;;6.65;4.07;;;3.90;99.90;;;;;;5116825;28;20483;-74
2022/04/22 03:04:36;;;;;;;6.97;4.63;;;3.90;99.90;;;;;;5112497;28;20028;-76
2022/04/22 03:07:02;;;;;;;6.13;3.83;;;3.80;99.90;;;;;;5111966;28;20092;-74
2022/04/22 03:09:28;;;;;;;4.85;3.35;;;3.70;99.90;;;;;;5111677;28;20109;-74
2022/04/22 03:11:54;;;;;;;8.18;4.82;;;3.70;99.90;;;;;;5112375;28;20046;-74
2022/04/22 03:14:20;;;;;;;4.55;3.70;;;3.70;99.90;;;;;;5112381;28;20477;-74
2022/04/22 03:16:46;;;;;;;4.88;3.65;;;3.70;99.90;;;;;;5111789;28;20058;-74
2022/04/22 03:19:12;;;;;;;6.63;4.05;;;3.70;99.90;;;;;;5111363;28;20024;-74
2022/04/22 03:21:38;;;;;;;6.15;4.28;;;3.60;99.90;;;;;;5111388;28;20111;-74
2022/04/22 03:24:04;;;;;;;6.72;4.38;;;3.60;99.90;;;;;;5111886;28;20032;-74
2022/04/22 03:26:30;;;;;;;6.60;4.68;;;3.60;99.90;;;;;;5111749;28;20028;-73
2022/04/22 03:28:57;;;;;;;6.25;4.38;;;3.60;99.90;;;;;;5110607;28;20035;-74
2022/04/22 03:31:23;;;;;;;8.10;4.35;;;3.50;99.90;;;;;;5111557;28;20027;-74
2022/04/22 03:33:49;;;;;;;5.85;4.45;;;3.60;99.90;;;;;;5110769;28;20020;-74
2022/04/22 03:36:15;;;;;;;5.97;3.90;;;3.70;99.90;;;;;;5112329;28;20023;-74
2022/04/22 03:38:43;;;;;;;5.85;4.40;;;5.60;99.90;;;;;;5112206;28;20464;-74
2022/04/22 03:41:09;;;;;;;6.18;4.47;;;3.60;99.90;;;;;;5110795;28;20046;-74
2022/04/22 03:43:34;;;;;;;5.88;4.10;;;3.50;99.90;;;;;;5111279;28;20019;-74
2022/04/22 03:46:00;;;;;;;7.28;3.88;;;3.30;99.90;;;;;;5114848;28;20046;-74
2022/04/22 03:48:26;;;;;;;8.55;4.20;;;3.20;99.90;;;;;;5114763;28;20058;-74
2022/04/22 03:50:51;;;;;;;9.70;4.80;;;3.10;99.90;;;;;;5114029;28;20451;-74
2022/04/22 03:53:17;;;;;;;5.75;3.70;;;3.20;99.90;;;;;;5114823;28;20072;-74
2022/04/22 03:55:44;;;;;;;6.10;4.35;;;3.20;99.90;;;;;;5113987;28;20031;-74
2022/04/22 03:58:11;;;;;;;9.38;4.75;;;3.20;99.90;;;;;;5112660;28;20498;-74
2022/04/22 04:00:48;;;;;;;9.30;4.75;;;3.20;99.90;;;;;;5114892;28;20080;-74
2022/04/22 04:03:19;;;;;;;6.45;4.43;;;3.10;99.90;;;;;;5115180;28;20028;-74
2022/04/22 04:05:49;;;;;;;8.20;5.03;;;3.10;99.90;;;;;;5114752;27;20379;-74
2022/04/22 04:08:16;;;;;;;8.10;4.78;;;3.10;99.90;;;;;;5114628;28;20305;-74
2022/04/22 04:16:11;;;;;;;9.32;4.15;;;3.10;99.90;;;;;;5115051;28;20027;-74
2022/04/22 04:18:38;;;;;;;9.25;5.70;;;3.10;99.90;;;;;;5115824;28;20256;-74
2022/04/22 04:23:51;;;;;;;5.95;4.07;;;2.80;99.90;;;;;;5115266;28;20115;-74
2022/04/22 04:26:18;;;;;;;7.72;4.88;;;2.70;99.90;;;;;;5114527;28;20020;-74
2022/04/22 04:28:47;;;;;;;8.85;5.10;;;2.70;99.90;;;;;;5115039;28;20069;-74
2022/04/22 04:31:13;;;;;;;7.60;4.63;;;2.80;99.90;;;;;;5114726;28;20460;-74
2022/04/22 04:33:43;;;;;;;7.72;5.57;;;2.90;99.90;;;;;;5114583;28;20034;-74
2022/04/22 04:36:12;;;;;;;9.25;5.32;;;3.00;99.90;;;;;;5112318;28;20384;-74
2022/04/22 04:38:40;;;;;;;9.05;5.15;;;3.00;99.90;;;;;;5113434;28;20061;-74
2022/04/22 04:41:07;;;;;;;9.55;5.28;;;3.10;99.90;;;;;;5114151;28;20023;-74
2022/04/22 04:43:34;;;;;;;8.88;4.97;;;3.10;99.90;;;;;;5112792;28;20076;-74
2022/04/22 04:46:00;;;;;;;8.45;4.78;;;3.10;99.90;;;;;;5113340;28;20542;-74
2022/04/22 04:48:26;;;;;;;7.03;4.82;;;3.10;99.90;;;;;;5112652;28;20032;-74
2022/04/22 04:50:51;;;;;;;6.45;4.50;;;3.00;99.90;;;;;;5113292;28;20657;-74
2022/04/22 04:53:20;;;;;;;8.25;6.13;;;3.00;99.90;;;;;;5112827;28;20072;-74
2022/04/22 04:55:46;;;;;;;9.63;5.45;;;3.00;99.90;;;;;;5113229;28;20027;-74
2022/04/22 04:58:12;;;;;;;10.23;5.40;;;3.10;99.90;;;;;;5112726;28;20069;-74
2022/04/22 05:00:38;;;;;;;8.70;5.10;;;3.10;99.90;;;;;;5112915;28;20020;-74
2022/04/22 05:03:04;;;;;;;10.43;5.88;;;3.20;99.90;;;;;;5112888;28;20475;-74
2022/04/22 05:05:30;;;;;;;8.82;5.55;;;3.20;99.90;;;;;;5111780;28;20038;-74
2022/04/22 05:08:00;;;;;;;7.72;5.20;;;3.30;99.90;;;;;;5111731;28;20460;-74
2022/04/22 05:10:29;;;;;;;13.85;5.60;;;3.20;99.90;;;;;;5112451;28;20408;-74
2022/04/22 05:12:54;;;;;;;8.25;5.30;;;3.40;99.90;;;;;;5112421;28;20035;-75
2022/04/22 05:15:24;;;;;;;10.27;5.55;;;3.60;99.90;;;;;;5112387;28;20023;-74
2022/04/22 05:17:52;;;;;;;8.93;5.28;;;3.70;99.90;;;;;;5113639;28;20062;-74
2022/04/22 05:20:20;;;;;;;9.40;5.40;;;4.10;99.90;;;;;;5112476;27;20391;-74
2022/04/22 05:22:46;;;;;;;8.35;5.38;;;4.10;99.90;;;;;;5112663;28;20016;-74
2022/04/22 05:25:13;;;;;;;6.80;4.70;;;4.20;99.90;;;;;;5112693;28;20059;-74
2022/04/22 05:27:39;;;;;;;7.32;5.10;;;4.20;99.90;;;;;;5113395;28;20600;-74
2022/04/22 05:32:51;;;;;;;6.53;5.30;;;4.40;99.90;;;;;;5114354;28;20053;-74
2022/04/22 05:35:18;;;;;;;6.47;4.70;;;4.60;99.90;;;;;;5116161;27;20430;-74
2022/04/22 05:37:51;;;;;;;9.82;6.10;;;4.80;99.90;;;;;;5114975;28;20064;-75
2022/04/22 05:40:20;;;;;;;7.18;4.53;;;4.90;99.90;;;;;;5115661;28;20028;-74
2022/04/22 05:42:46;;;;;;;7.03;4.97;;;5.10;99.90;;;;;;5114627;28;20042;-75
2022/04/22 05:45:14;;;;;;;7.03;4.70;;;5.30;99.90;;;;;;5113094;28;20444;-74
2022/04/22 05:47:41;;;;;;;8.23;4.93;;;5.50;99.90;;;;;;5113432;28;20011;-74
2022/04/22 05:50:10;;;;;;;6.88;5.05;;;5.70;99.90;;;;;;5114143;28;20353;-74
2022/04/22 05:52:37;;;;;;;9.18;5.40;;;5.80;99.90;;;;;;5113664;28;20019;-74
2022/04/22 05:55:04;;;;;;;7.32;5.28;;;6.00;99.90;;;;;;5114081;28;20274;-74
2022/04/22 05:57:35;;;;;;;6.97;5.10;;;6.20;99.90;;;;;;5113002;28;20018;-74
2022/04/22 06:00:05;;;;;;;7.78;5.82;;;6.40;99.90;;;;;;5110770;28;20032;-74
2022/04/22 06:02:31;;;;;;;9.70;5.68;;;6.30;99.90;;;;;;5111690;28;20094;-75
2022/04/22 06:04:57;;;;;;;9.68;5.30;;;6.40;99.90;;;;;;5112882;28;20060;-74
2022/04/22 06:07:23;;;;;;;7.78;5.25;;;6.40;99.90;;;;;;5111540;28;20444;-74
2022/04/22 06:12:33;;;;;;;7.32;4.88;;;6.40;99.90;;;;;;5111140;28;20038;-74
2022/04/22 06:15:00;;;;;;;10.93;5.50;;;6.30;99.90;;;;;;5111649;28;20048;-74
2022/04/22 06:17:29;;;;;;;7.75;4.90;;;6.30;99.90;;;;;;5112801;28;20016;-74
2022/04/22 06:19:56;;;;;;;9.13;6.32;;;6.30;99.90;;;;;;5111546;28;20058;-74
2022/04/22 06:22:22;;;;;;;8.15;5.95;;;6.30;99.90;;;;;;5112119;28;20031;-74
2022/04/22 06:24:48;;;;;;;7.30;4.72;;;6.40;99.90;;;;;;5112003;28;20031;-74
2022/04/22 06:27:21;;;;;;;10.07;5.32;;;6.60;99.90;;;;;;5111755;28;20289;-74
2022/04/22 06:29:47;;;;;;;8.43;5.47;;;6.50;99.90;;;;;;5111717;28;20036;-74
2022/04/22 06:32:13;;;;;;;7.68;5.10;;;6.70;99.90;;;;;;5113751;28;20019;-74
2022/04/22 06:34:40;;;;;;;7.20;5.25;;;6.90;99.90;;;;;;5113594;28;20027;-74
2022/04/22 06:37:06;;;;;;;7.75;4.80;;;7.30;99.90;;;;;;5114923;28;20424;-75
2022/04/22 06:45:46;;;;;;;5.88;4.85;;;7.40;99.90;;;;;;5116039;28;20049;-74
2022/04/22 06:47:47;;;;;;;8.85;5.30;;;7.60;99.90;;;;;;5114752;28;20033;-74
2022/04/22 06:50:19;;;;;;;6.10;4.90;;;8.20;99.90;;;;;;5112468;28;20028;-74
2022/04/22 06:52:47;;;;;;;6.35;4.57;;;8.50;99.90;;;;;;5110164;28;20164;-74
2022/04/22 06:55:20;;;;;;;8.43;4.47;;;8.30;99.90;;;;;;5113188;28;20020;-74
2022/04/22 06:57:50;;;;;;;8.73;4.95;;;8.00;99.90;;;;;;5114846;28;20484;-74
2022/04/22 07:00:18;;;;;;;7.68;4.70;;;8.20;99.90;;;;;;5113136;28;20020;-74
2022/04/22 07:02:45;;;;;;;7.75;5.63;;;8.20;99.90;;;;;;5114075;28;20039;-75
2022/04/22 07:05:12;;;;;;;12.77;4.60;;;8.10;99.90;;;;;;5112956;28;20020;-74
2022/04/22 07:07:38;;;;;;;8.45;5.18;;;8.20;99.90;;;;;;5113568;28;20066;-74
2022/04/22 07:10:05;;;;;;;6.57;4.82;;;8.10;99.90;;;;;;5112727;28;20080;-74
2022/04/22 07:12:32;;;;;;;8.55;4.78;;;8.30;99.90;;;;;;5112008;28;20027;-74
2022/04/22 07:15:08;;;;;;;7.90;5.25;;;8.50;99.90;;;;;;5111464;28;20074;-74
2022/04/22 07:17:35;;;;;;;6.22;5.00;;;8.50;99.90;;;;;;5113308;28;20024;-74
2022/04/22 07:20:09;;;;;;;6.65;4.93;;;8.40;99.90;;;;;;5116260;28;20406;-74
2022/04/22 07:22:39;;;;;;;10.50;5.63;;;8.40;99.90;;;;;;5116155;27;20077;-74
2022/04/22 07:25:06;;;;;;;6.28;5.35;;;8.70;99.90;;;;;;5115779;28;20019;-74
2022/04/22 07:27:38;;;;;;;8.70;5.38;;;8.70;99.90;;;;;;5116211;28;20028;-74
2022/04/22 07:30:07;;;;;;;7.70;5.57;;;8.60;99.90;;;;;;5115521;28;20062;-74
2022/04/22 07:32:35;;;;;;;9.07;6.13;;;8.50;99.90;;;;;;5115309;28;20059;-74
2022/04/22 07:35:01;;;;;;;8.68;6.13;;;8.50;99.90;;;;;;5115584;28;20028;-74
2022/04/22 07:37:27;;;;;;;9.15;5.75;;;7.80;99.90;;;;;;5116797;28;20020;-74
2022/04/22 07:39:53;;;;;;;6.75;5.00;;;9.20;99.90;;;;;;5115600;28;20068;-74
2022/04/22 07:42:19;;;;;;;10.15;5.28;;;9.10;99.90;;;;;;5115274;28;20099;-74
2022/04/22 07:47:36;;;;;;;7.68;5.60;;;9.00;99.90;;;;;;5116514;28;20104;-74
2022/04/22 07:50:06;;;;;;;10.50;5.07;;;9.00;99.90;;;;;;5116769;28;20503;-74
2022/04/22 07:52:44;;;;;;;8.40;5.78;;;9.10;99.90;;;;;;5116245;28;20023;-74
2022/04/22 07:55:10;;;;;;;10.30;6.30;;;9.40;99.90;;;;;;5117998;28;20103;-76
2022/04/22 07:57:36;;;;;;;8.98;6.07;;;9.40;99.90;;;;;;5116082;28;20100;-74
2022/04/22 08:00:03;;;;;;;10.18;6.07;;;9.70;99.90;;;;;;5114488;28;20055;-74
2022/04/22 08:02:29;;;;;;;7.60;5.53;;;10.00;99.90;;;;;;5114233;28;20486;-74
2022/04/22 08:04:55;;;;;;;7.75;6.00;;;10.30;99.90;;;;;;5114979;28;20030;-74
2022/04/22 08:07:20;;;;;;;9.27;5.60;;;10.30;99.90;;;;;;5114845;28;20030;-74
2022/04/22 08:09:46;;;;;;;8.75;5.78;;;10.50;99.90;;;;;;5115269;28;20123;-74
2022/04/22 08:12:15;;;;;;;8.20;5.53;;;10.90;99.90;;;;;;5115127;28;20019;-74
2022/04/22 08:14:47;;;;;;;8.43;5.80;;;11.10;99.90;;;;;;5113773;28;20500;-74
2022/04/22 08:17:15;;;;;;;7.35;5.95;;;11.60;99.90;;;;;;5115493;28;20032;-74
2022/04/22 08:19:41;;;;;;;6.88;5.43;;;11.50;99.90;;;;;;5113221;28;20015;-74
2022/04/22 08:22:07;;;;;;;6.93;5.50;;;11.80;99.90;;;;;;5114385;28;20026;-74
2022/04/22 08:24:33;;;;;;;9.20;6.38;;;12.00;99.90;;;;;;5113629;28;20023;-74
2022/04/22 08:26:59;;;;;;;7.35;5.75;;;11.80;99.90;;;;;;5112979;28;20491;-74
2022/04/22 08:29:25;;;;;;;9.52;7.05;;;12.10;99.90;;;;;;5114676;28;20067;-75
2022/04/22 08:31:52;;;;;;;13.30;6.78;;;11.50;99.90;;;;;;5111638;28;20278;-75
2022/04/22 08:34:18;;;;;;;10.88;7.50;;;11.80;99.90;;;;;;5112934;28;20016;-74
2022/04/22 08:36:46;;;;;;;10.85;6.63;;;12.30;99.90;;;;;;5112926;28;20068;-75
2022/04/22 08:39:12;;;;;;;14.38;7.03;;;12.50;99.90;;;;;;5113517;28;20028;-75
2022/04/22 08:41:41;;;;;;;9.70;6.32;;;12.70;99.90;;;;;;5111432;28;20388;-75
2022/04/22 08:44:07;;;;;;;10.20;6.30;;;13.10;99.90;;;;;;5111488;28;20080;-74
2022/04/22 08:52:03;;;;;;;9.05;6.38;;;13.30;99.90;;;;;;5113882;28;20392;-74
2022/04/22 08:54:30;;;;;;;10.25;6.88;;;13.50;99.90;;;;;;5113352;28;20023;-74
2022/04/22 08:56:56;;;;;;;10.00;6.80;;;13.70;98.90;;;;;;5113190;28;20016;-74
2022/04/22 08:59:21;;;;;;;8.55;6.43;;;13.40;98.70;;;;;;5113310;28;20092;-75
2022/04/22 09:01:49;;;;;;;9.50;7.30;;;12.60;99.90;;;;;;5113477;28;20235;-74
2022/04/22 09:04:14;;;;;;;9.50;6.72;;;12.70;99.90;;;;;;5112970;28;20054;-75
2022/04/22 09:06:40;;;;;;;10.80;6.85;;;12.70;99.90;;;;;;5112538;28;20024;-75
2022/04/22 09:09:06;;;;;;;10.38;7.13;;;12.70;99.90;;;;;;5113468;28;20110;-74
2022/04/22 09:11:37;;;;;;;8.80;6.65;;;13.30;99.90;;;;;;5113163;28;20437;-75
2022/04/22 09:14:04;;;;;;;10.25;7.38;;;13.10;99.90;;;;;;5113283;28;20130;-75
2022/04/22 09:16:29;;;;;;;9.35;7.25;;;13.30;99.90;;;;;;5112813;28;20023;-75
2022/04/22 09:19:03;;;;;;;10.70;7.60;;;13.20;99.80;;;;;;5113303;28;20247;-74
2022/04/22 09:21:31;;;;;;;9.75;6.63;;;12.50;99.90;;;;;;5113108;28;20110;-74
2022/04/22 09:24:16;;;;;;;11.40;7.82;;;12.80;99.90;;;;;;5113692;28;20016;-74
2022/04/22 09:26:42;;;;;;;11.88;8.02;;;12.80;99.90;;;;;;5111076;28;20023;-74
2022/04/22 09:29:10;;;;;;;13.57;8.10;;;12.70;99.90;;;;;;5113294;28;20038;-74
2022/04/22 09:31:51;;;;;;;10.52;6.95;;;12.70;99.90;;;;;;5112945;28;20020;-74
2022/04/22 09:34:42;;;;;;;11.07;7.22;;;12.70;99.90;;;;;;5113157;28;20055;-74
2022/04/22 09:42:58;;;;;;;13.50;7.65;;;13.70;99.90;;;;;;5111792;28;20506;-74
2022/04/22 09:45:38;;;;;;;15.98;8.48;;;13.00;98.50;;;;;;5112697;28;20050;-74
2022/04/22 09:48:17;;;;;;;11.63;7.93;;;13.40;99.90;;;;;;5112262;28;20024;-75
2022/04/22 09:50:47;;;;;;;10.43;7.95;;;13.00;99.90;;;;;;5111648;28;20038;-75
2022/04/22 09:53:14;;;;;;;10.88;7.97;;;13.10;99.90;;;;;;5112798;28;20468;-74
2022/04/22 09:55:53;;;;;;;10.50;6.80;;;13.40;97.70;;;;;;5113176;28;20027;-74
2022/04/22 09:58:23;;;;;;;10.40;6.80;;;13.70;96.90;;;;;;5113107;28;20019;-74
2022/04/22 10:00:59;;;;;;;11.88;7.38;;;13.90;95.90;;;;;;5113641;28;20023;-74
2022/04/22 10:03:35;;;;;;;10.23;7.28;;;13.80;97.10;;;;;;5114137;28;20375;-74
2022/04/22 10:06:01;;;;;;;12.73;7.25;;;14.20;95.30;;;;;;5114580;28;20114;-74
2022/04/22 10:08:31;;;;;;;10.95;7.10;;;14.30;95.40;;;;;;5112822;28;20078;-74
2022/04/22 10:11:01;;;;;;;14.35;7.70;;;13.90;96.00;;;;;;5111892;28;20104;-74
2022/04/22 10:13:53;;;;;;;9.25;7.38;;;13.90;96.20;;;;;;5112342;28;20043;-74
2022/04/22 10:16:19;;;;;;;12.10;7.70;;;14.20;97.00;;;;;;5107857;28;20081;-74
2022/04/22 10:18:45;;;;;;;15.57;8.10;;;14.40;95.80;;;;;;5109658;28;20019;-74
2022/04/22 10:21:11;;;;;;;13.07;7.78;;;14.20;95.70;;;;;;5111852;28;20035;-74
2022/04/22 10:23:37;;;;;;;13.48;7.63;;;14.30;94.00;;;;;;5112121;28;20035;-74
2022/04/22 10:26:05;;;;;;;10.18;7.18;;;14.40;93.40;;;;;;5111810;28;20028;-75
2022/04/22 10:28:31;;;;;;;13.13;7.60;;;14.40;93.10;;;;;;5111368;28;20442;-74
2022/04/22 10:31:00;;;;;;;12.15;7.68;;;14.40;94.70;;;;;;5113841;28;20066;-75
2022/04/22 10:33:40;;;;;;;11.18;7.68;;;14.30;95.40;;;;;;5112905;28;20023;-74
2022/04/22 10:36:05;;;;;;;;;;;14.30;94.10;;;;;;5112477;28;20129;-74
2022/04/22 10:38:38;;;;;;;11.95;7.50;;;14.40;95.40;;;;;;5109591;28;20060;-75
2022/04/22 10:41:13;;;;;;;13.30;8.00;;;14.70;92.00;;;;;;5112724;28;20397;-76
2022/04/22 10:43:39;;;;;;;13.57;7.95;;;14.90;90.90;;;;;;5114756;28;20057;-74
2022/04/22 10:49:15;;;;;;;11.27;7.70;;;15.40;96.60;;;;;;5114654;28;20057;-74
2022/04/22 10:52:09;;;;;;;11.80;7.70;;;15.40;90.30;;;;;;5113043;28;20024;-74
2022/04/22 10:54:54;;;;;;;11.93;8.02;;;15.00;92.90;;;;;;5115313;28;20023;-74
2022/04/22 10:57:23;;;;;;;12.60;7.82;;;15.40;88.90;;;;;;5115797;28;20028;-72
2022/04/22 11:00:16;;;;;;;13.70;8.13;;;16.10;85.20;;;;;;5114488;28;20096;-72
2022/04/22 11:02:43;;;;;;;11.30;8.30;;;16.40;82.70;;;;;;5095892;28;20032;-72
2022/04/22 11:05:21;;;;;;;12.10;8.10;;;16.50;82.10;;;;;;5101027;28;20165;-72
2022/04/22 11:07:56;;;;;;;11.93;8.02;;;16.60;81.30;;;;;;5102167;28;20385;-73
2022/04/22 11:10:58;;;;;;;11.25;7.68;;;16.20;81.80;;;;;;5100735;28;20036;-72
2022/04/22 11:13:29;;;;;;;11.63;8.55;;;16.60;80.00;;;;;;5066115;28;20476;-72
2022/04/22 11:16:05;;;;;;;14.57;8.25;;;17.00;81.60;;;;;;5101656;28;20032;-72
2022/04/22 11:18:31;;;;;;;13.20;7.97;;;16.80;79.10;;;;;;5101208;28;20308;-73
2022/04/22 11:21:16;;;;;;;11.52;7.53;;;16.20;82.30;;;;;;5102685;28;20028;-73
2022/04/22 11:23:46;;;;;;;11.10;8.32;;;16.10;80.60;;;;;;5100991;28;20023;-73
2022/04/22 11:26:14;;;;;;;11.73;7.90;;;16.70;79.80;;;;;;5102929;28;20024;-73
2022/04/22 11:28:42;;;;;;;13.33;8.60;;;16.90;80.40;;;;;;5098168;28;20047;-73
2022/04/22 11:31:10;;;;;;;16.25;8.40;;;17.30;77.70;;;;;;5102269;28;20349;-72
2022/04/22 11:34:01;;;;;;;11.02;8.25;;;17.10;77.50;;;;;;5101914;28;20484;-75
2022/04/22 11:36:27;;;;;;;13.35;8.52;;;16.70;77.90;;;;;;5100595;28;20042;-74
2022/04/22 11:38:54;;;;;;;10.80;7.97;;;17.10;76.20;;;;;;5102722;28;20039;-74
2022/04/22 11:41:22;;;;;;;14.50;8.82;;;17.00;77.30;;;;;;5102339;28;20181;-75
2022/04/22 11:43:48;;;;;;;13.98;9.13;;;16.90;76.50;;;;;;5101117;28;20020;-74
2022/04/22 11:46:15;;;;;;;12.85;9.23;;;17.00;75.50;;;;;;5099525;28;20020;-75
2022/04/22 11:48:50;;;;;;;13.30;8.43;;;17.60;74.10;;;;;;5101331;28;20047;-74
2022/04/22 11:51:19;;;;;;;13.00;8.63;;;18.70;72.00;;;;;;5100433;28;20025;-74
2022/04/22 11:53:49;;;;;;;9.30;7.07;;;19.40;69.00;;;;;;5102320;28;20031;-74
2022/04/22 11:56:23;;;;;;;10.45;8.02;;;20.10;68.10;;;;;;5102331;28;20364;-75
2022/04/22 11:58:56;;;;;;;12.32;7.93;;;20.00;68.00;;;;;;5099684;28;20028;-74
2022/04/22 12:06:58;;;;;;;9.93;7.63;;;19.30;65.50;;;;;;5112777;28;20438;-75
2022/04/22 12:09:25;;;;;;;13.13;8.30;;;19.30;67.70;;;;;;5098168;28;20076;-75
2022/04/22 12:11:51;;;;;;;13.93;7.82;;;19.30;66.60;;;;;;5100824;28;20201;-77
2022/04/22 12:14:25;;;;;;;12.23;8.25;;;19.70;67.00;;;;;;5100335;28;20055;-76
2022/04/22 12:16:58;;;;;;;13.05;7.90;;;19.10;66.70;;;;;;5096308;28;20035;-75
2022/04/22 12:19:25;;;;;;;10.52;7.75;;;19.20;66.00;;;;;;5092301;28;20047;-75
2022/04/22 12:21:51;;;;;;;10.85;7.97;;;18.90;66.60;;;;;;5092156;28;20024;-75
2022/04/22 12:24:17;;;;;;;11.55;8.57;;;19.20;65.20;;;;;;5090931;28;20032;-75
2022/04/22 12:26:46;;;;;;;10.82;8.90;;;19.00;65.10;;;;;;5090143;28;20081;-76
2022/04/22 12:29:14;;;;;;;10.70;8.52;;;18.90;65.20;;;;;;5094493;28;20387;-75
2022/04/22 12:32:00;;;;;;;11.02;7.88;;;19.10;68.40;;;;;;5093614;28;20031;-74
2022/04/22 12:34:30;;;;;;;14.98;7.85;;;19.30;65.20;;;;;;5091291;28;20033;-75
2022/04/22 12:37:00;;;;;;;11.05;8.20;;;19.40;65.00;;;;;;5090218;28;20027;-76
2022/04/22 12:39:41;;;;;;;10.77;8.43;;;19.90;63.80;;;;;;5091920;28;20024;-75
2022/04/22 12:42:16;;;;;;;13.13;8.70;;;20.40;64.30;;;;;;5089996;28;20016;-75
2022/04/22 12:52:07;;;;;;;14.52;7.97;;;20.00;62.90;;;;;;5091502;28;20081;-76
2022/04/22 12:52:57;;;;;;;16.02;8.52;;;20.20;64.20;;;;;;5091489;28;20035;-75
2022/04/22 12:55:23;;;;;;;12.02;8.68;;;19.80;64.90;;;;;;5091415;28;20024;-75
2022/04/22 12:57:59;;;;;;;9.90;7.72;;;19.60;62.30;;;;;;5091729;28;20099;-75
2022/04/22 13:00:25;;;;;;;10.13;8.38;;;20.20;63.00;;;;;;5089764;28;20024;-77
2022/04/22 13:02:51;;;;;;;12.80;8.50;;;20.00;61.70;;;;;;5091027;28;20503;-76
2022/04/22 13:05:19;;;;;;;11.60;8.95;;;20.40;61.30;;;;;;5091505;28;20133;-83
2022/04/22 13:07:52;;;;;;;16.02;8.70;;;19.90;63.60;;;;;;5091191;28;20103;-81
2022/04/22 13:10:22;;;;;;;12.52;8.30;;;20.10;62.00;;;;;;5091371;28;20116;-78
2022/04/22 13:12:48;;;;;;;12.90;7.50;;;20.10;63.00;;;;;;5091930;28;20051;-85
2022/04/22 13:15:19;;;;;;;11.77;7.90;;;21.00;61.70;;;;;;5090658;28;20032;-81
2022/04/22 13:17:49;;;;;;;11.57;8.48;;;20.90;61.30;;;;;;5094230;28;20028;-79
2022/04/22 13:20:20;;;;;;;10.07;8.43;;;20.10;61.60;;;;;;5093543;28;20031;-86
2022/04/22 13:22:47;;;;;;;14.73;8.43;;;20.30;61.90;;;;;;5089437;28;20024;-85
2022/04/22 13:25:15;;;;;;;11.80;8.02;;;20.60;60.30;;;;;;5090662;28;20107;-77
2022/04/22 13:27:41;;;;;;;14.57;8.60;;;20.40;60.10;;;;;;5100764;28;20047;-77
2022/04/22 13:30:09;;;;;;;9.93;8.27;;;19.80;61.90;;;;;;5101849;28;20039;-77
2022/04/22 13:32:38;;;;;;;14.52;7.88;;;19.90;62.60;;;;;;5095505;28;20024;-77
2022/04/22 13:35:05;;;;;;;10.68;7.90;;;20.10;62.00;;;;;;5094049;28;20024;-77
2022/04/22 13:37:34;;;;;;;10.10;8.10;;;20.00;62.70;;;;;;5098175;28;20028;-76
2022/04/22 13:40:01;;;;;;;15.65;8.75;;;19.90;61.90;;;;;;5098972;28;20020;-78
2022/04/22 13:42:26;;;;;;;13.93;8.80;;;19.60;62.70;;;;;;5093622;28;20020;-77
2022/04/22 13:53:05;;;;;;;11.88;7.30;;;18.90;66.40;;;;;;5117066;28;20498;-76
2022/04/22 13:55:36;;;;;;;10.70;8.27;;;19.00;65.80;;;;;;5109752;28;20027;-77
2022/04/22 13:58:01;;;;;;;12.30;7.43;;;19.90;63.70;;;;;;5100626;28;20667;-78
2022/04/22 14:00:28;;;;;;;11.75;7.75;;;20.10;64.60;;;;;;5107251;28;20027;-77
2022/04/22 14:02:55;;;;;;;12.40;6.93;;;20.60;62.80;;;;;;5109118;28;20020;-78